createdAt,value
2022-12-13T00:01:14.425Z,-7.66
2022-12-13T00:03:40.800Z,-7.70
2022-12-13T00:06:09.069Z,-7.77
2022-12-13T00:08:36.270Z,-7.71
2022-12-13T00:11:06.081Z,-7.58
2022-12-13T00:13:33.677Z,-7.57
2022-12-13T00:16:02.149Z,-7.50
2022-12-13T00:18:29.059Z,-7.38
2022-12-13T00:20:55.461Z,-7.31
2022-12-13T00:23:22.321Z,-7.24
2022-12-13T00:25:48.759Z,-7.12
2022-12-13T00:28:15.909Z,-7.03
2022-12-13T00:30:42.833Z,-6.94
2022-12-13T00:33:09.406Z,-6.90
2022-12-13T00:35:42.359Z,-6.84
2022-12-13T00:38:10.055Z,-6.78
2022-12-13T00:40:36.507Z,-6.72
2022-12-13T00:43:02.832Z,-6.66
2022-12-13T00:45:29.249Z,-6.64
2022-12-13T00:47:55.662Z,-6.59
2022-12-13T00:50:22.027Z,-6.57
2022-12-13T00:52:48.324Z,-6.66
2022-12-13T00:55:14.834Z,-6.61
2022-12-13T00:57:41.441Z,-6.83
2022-12-13T01:00:08.458Z,-6.83
2022-12-13T01:02:34.761Z,-6.81
2022-12-13T01:05:01.097Z,-6.81
2022-12-13T01:07:27.406Z,-6.80
2022-12-13T01:09:53.704Z,-6.69
2022-12-13T01:12:20.084Z,-6.71
2022-12-13T01:14:46.629Z,-6.92
2022-12-13T01:17:14.357Z,-6.95
2022-12-13T01:19:40.805Z,-6.92
2022-12-13T01:22:07.806Z,-6.81
2022-12-13T01:24:34.393Z,-6.88
2022-12-13T01:27:00.682Z,-6.88
2022-12-13T01:29:27.563Z,-6.83
2022-12-13T01:31:54.213Z,-6.74
2022-12-13T01:34:26.367Z,-6.65
2022-12-13T01:36:54.467Z,-6.62
2022-12-13T01:39:26.573Z,-6.72
2022-12-13T01:41:59.347Z,-6.74
2022-12-13T01:44:59.224Z,-6.89
2022-12-13T01:47:38.555Z,-6.75
2022-12-13T01:50:11.895Z,-6.68
2022-12-13T01:52:39.603Z,-6.74
2022-12-13T01:55:08.553Z,-6.82
2022-12-13T01:57:43.772Z,-6.99
2022-12-13T02:00:13.035Z,-7.03
2022-12-13T02:02:39.884Z,-7.06
2022-12-13T02:05:22.479Z,-7.05
2022-12-13T02:07:49.335Z,-7.00
2022-12-13T02:10:15.697Z,-6.92
2022-12-13T02:12:42.700Z,-7.04
2022-12-13T02:15:16.160Z,-7.01
2022-12-13T02:18:02.339Z,-7.13
2022-12-13T02:20:47.523Z,-7.07
2022-12-13T02:23:48.038Z,-7.01
2022-12-13T02:26:23.347Z,-7.08
2022-12-13T02:29:31.139Z,-7.10
2022-12-13T02:32:20.130Z,-7.04
2022-12-13T02:35:33.020Z,-7.09
2022-12-13T02:38:11.298Z,-7.05
2022-12-13T02:40:54.270Z,-6.85
2022-12-13T02:43:33.833Z,-7.03
2022-12-13T02:46:03.242Z,-6.99
2022-12-13T02:48:36.947Z,-6.96
2022-12-13T02:51:05.192Z,-7.18
2022-12-13T02:53:33.691Z,-7.32
2022-12-13T02:56:00.611Z,-7.41
2022-12-13T02:58:34.245Z,-7.38
2022-12-13T03:01:28.425Z,-7.31
2022-12-13T03:04:14.276Z,-7.28
2022-12-13T03:06:54.086Z,-7.30
2022-12-13T03:09:44.950Z,-7.28
2022-12-13T03:12:52.856Z,-7.27
2022-12-13T03:15:30.667Z,-7.29
2022-12-13T03:18:06.122Z,-7.32
2022-12-13T03:20:32.505Z,-7.41
2022-12-13T03:22:59.277Z,-7.43
2022-12-13T03:25:31.969Z,-7.53
2022-12-13T03:28:00.983Z,-7.54
2022-12-13T03:30:28.932Z,-7.51
2022-12-13T03:32:55.235Z,-7.52
2022-12-13T03:35:22.621Z,-7.56
2022-12-13T03:37:49.420Z,-7.48
2022-12-13T03:40:15.906Z,-7.38
2022-12-13T03:42:42.341Z,-7.30
2022-12-13T03:45:09.169Z,-7.29
2022-12-13T03:47:35.518Z,-7.45
2022-12-13T03:50:25.487Z,-7.56
2022-12-13T03:52:50.825Z,-7.58
2022-12-13T03:55:17.840Z,-7.57
2022-12-13T03:57:44.431Z,-7.50
2022-12-13T04:00:11.483Z,-7.47
2022-12-13T04:02:37.830Z,-7.55
2022-12-13T04:05:04.473Z,-7.51
2022-12-13T04:07:34.386Z,-7.64
2022-12-13T04:10:01.562Z,-7.76
2022-12-13T04:12:48.462Z,-7.66
2022-12-13T04:15:15.544Z,-7.67
2022-12-13T04:17:42.314Z,-7.63
2022-12-13T04:20:09.284Z,-7.62
2022-12-13T04:22:35.630Z,-7.71
2022-12-13T04:25:02.672Z,-7.74
2022-12-13T04:27:28.970Z,-7.77
2022-12-13T04:29:55.287Z,-7.70
2022-12-13T04:32:26.892Z,-7.69
2022-12-13T04:35:00.944Z,-7.78
2022-12-13T04:37:28.133Z,-7.64
2022-12-13T04:39:54.409Z,-7.70
2022-12-13T04:42:27.370Z,-7.91
2022-12-13T04:44:54.258Z,-7.84
2022-12-13T04:47:20.776Z,-7.78
2022-12-13T04:49:48.067Z,-7.60
2022-12-13T04:52:22.242Z,-7.52
2022-12-13T04:54:55.658Z,-7.51
2022-12-13T04:57:22.710Z,-7.60
2022-12-13T04:59:49.127Z,-7.79
2022-12-13T05:02:23.150Z,-7.81
2022-12-13T05:04:53.852Z,-7.65
2022-12-13T05:07:21.460Z,-7.49
2022-12-13T05:09:47.778Z,-7.36
2022-12-13T05:12:22.697Z,-7.31
2022-12-13T05:14:49.899Z,-7.21
2022-12-13T05:17:16.639Z,-7.45
2022-12-13T05:19:42.990Z,-7.77
2022-12-13T05:22:19.948Z,-7.76
2022-12-13T05:24:47.657Z,-7.68
2022-12-13T05:27:25.933Z,-7.60
2022-12-13T05:30:02.943Z,-7.40
2022-12-13T05:32:43.107Z,-7.22
2022-12-13T05:35:12.828Z,-7.14
2022-12-13T05:37:39.325Z,-7.18
2022-12-13T05:40:06.423Z,-7.12
2022-12-13T05:42:32.812Z,-6.89
2022-12-13T05:44:59.219Z,-6.67
2022-12-13T05:47:25.503Z,-6.51
2022-12-13T05:49:52.066Z,-6.39
2022-12-13T05:52:20.710Z,-6.36
2022-12-13T05:54:47.643Z,-6.45
2022-12-13T05:57:14.422Z,-6.44
2022-12-13T05:59:40.720Z,-6.48
2022-12-13T06:02:07.068Z,-6.66
2022-12-13T06:04:33.467Z,-6.63
2022-12-13T06:06:59.752Z,-6.61
2022-12-13T06:09:26.044Z,-6.67
2022-12-13T06:11:52.478Z,-6.56
2022-12-13T06:14:27.691Z,-6.67
2022-12-13T06:16:54.280Z,-6.61
2022-12-13T06:19:21.711Z,-6.53
2022-12-13T06:21:48.538Z,-6.48
2022-12-13T06:24:20.676Z,-6.36
2022-12-13T06:26:47.439Z,-6.33
2022-12-13T06:29:23.691Z,-6.27
2022-12-13T06:32:03.562Z,-6.24
2022-12-13T06:34:32.608Z,-6.20
2022-12-13T06:36:58.996Z,-6.15
2022-12-13T06:39:32.756Z,-6.04
2022-12-13T06:41:59.865Z,-6.03
2022-12-13T06:44:26.353Z,-5.97
2022-12-13T06:46:52.674Z,-6.00
2022-12-13T06:49:37.635Z,-5.97
2022-12-13T06:52:04.616Z,-5.90
2022-12-13T06:54:30.875Z,-5.84
2022-12-13T06:56:57.291Z,-5.77
2022-12-13T06:59:23.713Z,-5.63
2022-12-13T07:01:50.671Z,-5.51
2022-12-13T07:04:29.857Z,-5.41
2022-12-13T07:07:01.552Z,-5.33
2022-12-13T07:09:30.599Z,-5.28
2022-12-13T07:11:57.036Z,-5.20
2022-12-13T07:14:23.339Z,-5.13
2022-12-13T07:16:49.625Z,-5.06
2022-12-13T07:19:23.901Z,-5.07
2022-12-13T07:21:51.804Z,-5.02
2022-12-13T07:24:18.304Z,-4.95
2022-12-13T07:26:44.587Z,-4.96
2022-12-13T07:29:10.896Z,-4.90
2022-12-13T07:31:37.453Z,-4.88
2022-12-13T07:34:04.263Z,-4.86
2022-12-13T07:36:30.622Z,-4.84
2022-12-13T07:38:57.808Z,-4.84
2022-12-13T07:41:26.203Z,-4.83
2022-12-13T07:43:55.034Z,-4.81
2022-12-13T07:46:26.196Z,-4.77
2022-12-13T07:49:02.697Z,-4.77
2022-12-13T07:51:29.038Z,-4.71
2022-12-13T07:53:55.357Z,-4.70
2022-12-13T07:56:21.624Z,-4.67
2022-12-13T07:58:47.939Z,-4.62
2022-12-13T08:01:14.234Z,-4.54
2022-12-13T08:03:40.567Z,-4.48
2022-12-13T08:06:09.877Z,-4.47
2022-12-13T08:08:37.466Z,-4.45
2022-12-13T08:11:12.021Z,-4.40
2022-12-13T08:13:39.269Z,-4.41
2022-12-13T08:16:27.533Z,-4.31
2022-12-13T08:19:01.904Z,-4.27
2022-12-13T08:24:28.032Z,-4.16
2022-12-13T08:27:00.761Z,-4.13
2022-12-13T08:29:34.040Z,-4.12
2022-12-13T08:32:07.898Z,-4.17
2022-12-13T08:34:34.544Z,-4.17
2022-12-13T08:37:02.272Z,-4.13
2022-12-13T08:39:37.321Z,-4.15
2022-12-13T08:42:18.740Z,-4.05
2022-12-13T08:44:50.959Z,-3.98
2022-12-13T08:47:23.376Z,-3.94
2022-12-13T08:49:55.128Z,-3.95
2022-12-13T08:52:23.640Z,-3.96
2022-12-13T08:54:50.876Z,-3.93
2022-12-13T08:57:17.724Z,-3.92
2022-12-13T08:59:44.024Z,-3.97
2022-12-13T09:02:14.404Z,-3.88
2022-12-13T09:04:41.449Z,-3.86
2022-12-13T09:07:07.838Z,-3.77
2022-12-13T09:09:34.127Z,-3.71
2022-12-13T09:12:00.466Z,-3.70
2022-12-13T09:14:33.999Z,-3.64
2022-12-13T09:17:03.377Z,-3.57
2022-12-13T09:19:36.753Z,-3.54
2022-12-13T09:22:03.727Z,-3.53
2022-12-13T09:24:36.493Z,-3.44
2022-12-13T09:27:09.243Z,-3.49
2022-12-13T09:29:36.207Z,-3.48
2022-12-13T09:32:02.555Z,-3.56
2022-12-13T09:34:29.167Z,-3.50
2022-12-13T09:36:55.485Z,-3.50
2022-12-13T09:39:28.182Z,-3.46
2022-12-13T09:42:00.951Z,-3.51
2022-12-13T09:44:44.070Z,-3.50
2022-12-13T09:47:35.306Z,-3.46
2022-12-13T09:50:07.001Z,-3.35
2022-12-13T09:52:38.387Z,-3.27
2022-12-13T09:55:22.555Z,-3.22
2022-12-13T09:57:50.453Z,-3.24
2022-12-13T10:00:21.229Z,-3.19
2022-12-13T10:02:52.776Z,-3.16
2022-12-13T10:05:34.035Z,-3.13
2022-12-13T10:08:16.424Z,-3.16
2022-12-13T10:10:46.200Z,-3.12
2022-12-13T10:13:27.321Z,-3.07
2022-12-13T10:16:02.498Z,-2.99
2022-12-13T10:18:38.713Z,-2.95
2022-12-13T10:21:11.461Z,-2.97
2022-12-13T10:24:15.113Z,-2.91
2022-12-13T10:26:25.306Z,-2.84
2022-12-13T10:29:01.785Z,-2.88
2022-12-13T10:31:28.157Z,-2.82
2022-12-13T10:33:57.296Z,-2.70
2022-12-13T10:36:38.838Z,-2.70
2022-12-13T10:39:05.178Z,-2.77
2022-12-13T10:41:37.984Z,-2.79
2022-12-13T10:44:14.743Z,-2.79
2022-12-13T10:46:47.446Z,-2.78
2022-12-13T10:49:20.142Z,-2.73
2022-12-13T10:51:47.329Z,-2.71
2022-12-13T10:54:28.616Z,-2.72
2022-12-13T10:57:00.040Z,-2.73
2022-12-13T10:59:32.455Z,-2.63
2022-12-13T11:01:59.197Z,-2.57
2022-12-13T11:04:35.163Z,-2.48
2022-12-13T11:07:22.776Z,-2.44
2022-12-13T11:09:52.743Z,-2.39
2022-12-13T11:12:25.605Z,-2.28
2022-12-13T11:14:51.821Z,-2.26
2022-12-13T11:17:22.720Z,-2.27
2022-12-13T11:19:52.975Z,-2.38
2022-12-13T11:22:30.696Z,-2.35
2022-12-13T11:25:03.717Z,-2.42
2022-12-13T11:27:48.586Z,-2.40
2022-12-13T11:30:24.467Z,-2.45
2022-12-13T11:33:26.188Z,-2.43
2022-12-13T11:36:08.061Z,-2.52
2022-12-13T11:38:57.633Z,-2.44
2022-12-13T11:41:36.002Z,-2.36
2022-12-13T11:44:13.450Z,-2.37
2022-12-13T11:46:54.168Z,-2.37
2022-12-13T11:49:40.190Z,-2.30
2022-12-13T11:52:18.869Z,-2.30
2022-12-13T11:55:08.699Z,-2.21
2022-12-13T11:58:07.272Z,-2.19
2022-12-13T12:00:38.408Z,-2.16
2022-12-13T12:03:17.278Z,-2.11
2022-12-13T12:06:05.750Z,-2.06
2022-12-13T12:08:55.905Z,-1.98
2022-12-13T12:11:31.767Z,-1.90
2022-12-13T12:14:10.854Z,-1.95
2022-12-13T12:16:45.970Z,-2.08
2022-12-13T12:19:18.753Z,-2.05
2022-12-13T12:22:16.054Z,-2.00
2022-12-13T12:24:57.246Z,-1.90
2022-12-13T12:27:39.786Z,-1.98
2022-12-13T12:30:22.731Z,-2.03
2022-12-13T12:33:14.542Z,-1.92
2022-12-13T12:36:08.674Z,-1.89
2022-12-13T12:38:48.891Z,-1.85
2022-12-13T12:41:26.998Z,-1.79
2022-12-13T12:44:21.130Z,-1.68
2022-12-13T12:47:38.141Z,-1.70
2022-12-13T12:50:12.057Z,-1.59
2022-12-13T12:52:58.610Z,-1.65
2022-12-13T12:55:46.469Z,-1.76
2022-12-13T12:58:33.643Z,-1.74
2022-12-13T13:01:18.349Z,-1.69
2022-12-13T13:03:45.278Z,-1.71
2022-12-13T13:06:17.651Z,-1.68
2022-12-13T13:08:55.636Z,-1.56
2022-12-13T13:11:25.957Z,-1.65
2022-12-13T13:14:01.739Z,-1.78
2022-12-13T13:16:40.077Z,-1.79
2022-12-13T13:19:12.416Z,-1.88
2022-12-13T13:21:50.505Z,-1.77
2022-12-13T13:24:23.548Z,-1.72
2022-12-13T13:26:52.893Z,-1.75
2022-12-13T13:29:27.437Z,-1.83
2022-12-13T13:32:01.380Z,-1.87
2022-12-13T13:34:31.165Z,-1.90
2022-12-13T13:36:59.004Z,-1.88
2022-12-13T13:39:27.987Z,-1.86
2022-12-13T13:42:18.345Z,-1.92
2022-12-13T13:44:44.578Z,-2.01
2022-12-13T13:47:15.418Z,-2.02
2022-12-13T13:50:02.077Z,-1.99
2022-12-13T13:53:02.824Z,-1.95
2022-12-13T13:55:43.609Z,-1.93
2022-12-13T13:58:22.190Z,-1.85
2022-12-13T14:01:12.861Z,-1.88
2022-12-13T14:03:59.399Z,-1.89
2022-12-13T14:06:53.639Z,-1.91
2022-12-13T14:09:45.809Z,-1.88
2022-12-13T14:12:57.260Z,-1.90
2022-12-13T14:15:49.738Z,-1.88
2022-12-13T14:18:54.100Z,-1.88
2022-12-13T14:21:24.162Z,-1.86
2022-12-13T14:24:19.952Z,-1.85
2022-12-13T14:27:11.257Z,-1.91
2022-12-13T14:29:41.330Z,-1.93
2022-12-13T14:32:25.907Z,-1.88
2022-12-13T14:34:54.153Z,-1.92
2022-12-13T14:37:22.475Z,-1.97
2022-12-13T14:39:49.084Z,-1.94
2022-12-13T14:42:34.130Z,-1.98
2022-12-13T14:45:26.229Z,-1.96
2022-12-13T14:47:54.355Z,-1.95
2022-12-13T14:50:21.367Z,-1.94
2022-12-13T14:52:49.390Z,-1.95
2022-12-13T14:55:23.774Z,-1.97
2022-12-13T14:57:59.470Z,-2.04
2022-12-13T15:00:26.228Z,-2.08
2022-12-13T15:02:55.555Z,-2.07
2022-12-13T15:05:36.155Z,-2.04
2022-12-13T15:08:10.769Z,-2.00
2022-12-13T15:10:40.965Z,-1.98
2022-12-13T15:13:08.249Z,-1.89
2022-12-13T15:15:37.330Z,-1.97
2022-12-13T15:18:09.425Z,-2.02
2022-12-13T15:20:41.393Z,-1.98
2022-12-13T15:23:20.015Z,-2.00
2022-12-13T15:25:50.309Z,-1.92
2022-12-13T15:28:21.603Z,-1.98
2022-12-13T15:30:48.709Z,-2.02
2022-12-13T15:33:38.081Z,-2.03
2022-12-13T15:36:07.495Z,-2.17
2022-12-13T15:38:36.045Z,-2.24
2022-12-13T15:41:03.965Z,-2.29
2022-12-13T15:43:37.905Z,-2.21
2022-12-13T15:46:07.441Z,-2.24
2022-12-13T15:48:38.848Z,-2.27
2022-12-13T15:51:28.745Z,-2.28
2022-12-13T15:54:08.976Z,-2.27
2022-12-13T15:56:36.634Z,-2.30
2022-12-13T15:59:05.133Z,-2.31
2022-12-13T16:01:35.603Z,-2.37
2022-12-13T16:04:06.001Z,-2.36
2022-12-13T16:06:33.533Z,-2.39
2022-12-13T16:09:02.839Z,-2.41
2022-12-13T16:11:41.966Z,-2.49
2022-12-13T16:14:30.451Z,-2.55
2022-12-13T16:17:13.281Z,-2.62
2022-12-13T16:19:39.839Z,-2.63
2022-12-13T16:22:08.628Z,-2.62
2022-12-13T16:24:35.697Z,-2.70
2022-12-13T16:27:01.990Z,-2.76
2022-12-13T16:29:35.097Z,-2.76
2022-12-13T16:32:08.342Z,-2.84
2022-12-13T16:34:35.211Z,-2.86
2022-12-13T16:37:01.547Z,-2.85
2022-12-13T16:39:27.856Z,-2.85
2022-12-13T16:41:54.419Z,-2.83
2022-12-13T16:44:42.997Z,-2.82
2022-12-13T16:47:20.581Z,-2.86
2022-12-13T16:49:53.431Z,-2.85
2022-12-13T16:52:21.737Z,-2.81
2022-12-13T16:54:48.279Z,-2.82
2022-12-13T16:57:14.628Z,-2.87
2022-12-13T16:59:40.936Z,-2.85
2022-12-13T17:02:16.854Z,-2.80
2022-12-13T17:04:43.155Z,-2.84
2022-12-13T17:07:09.445Z,-2.79
2022-12-13T17:09:35.842Z,-2.78
2022-12-13T17:12:02.119Z,-2.77
2022-12-13T17:14:28.393Z,-2.80
2022-12-13T17:16:54.734Z,-2.83
2022-12-13T17:19:21.065Z,-2.80
2022-12-13T17:21:48.048Z,-2.86
2022-12-13T17:24:15.208Z,-2.89
2022-12-13T17:26:41.588Z,-2.95
2022-12-13T17:29:21.285Z,-2.96
2022-12-13T17:31:47.639Z,-2.93
2022-12-13T17:34:13.916Z,-2.97
2022-12-13T17:36:40.297Z,-3.03
2022-12-13T17:39:06.608Z,-3.06
2022-12-13T17:41:33.148Z,-3.03
2022-12-13T17:44:00.440Z,-3.05
2022-12-13T17:46:26.781Z,-3.13
2022-12-13T17:48:53.270Z,-3.21
2022-12-13T17:51:19.709Z,-3.21
2022-12-13T17:53:46.494Z,-3.22
2022-12-13T17:56:17.733Z,-3.33
2022-12-13T17:58:44.307Z,-3.36
2022-12-13T18:01:14.774Z,-3.40
2022-12-13T18:03:41.262Z,-3.42
2022-12-13T18:06:07.973Z,-3.46
2022-12-13T18:08:36.260Z,-3.46
2022-12-13T18:11:31.361Z,-3.46
2022-12-13T18:13:49.673Z,-3.52
2022-12-13T18:16:22.821Z,-3.45
2022-12-13T18:18:55.227Z,-3.48
2022-12-13T18:21:23.595Z,-3.60
2022-12-13T18:23:55.189Z,-3.64
2022-12-13T18:26:23.492Z,-3.69
2022-12-13T18:28:50.052Z,-3.69
2022-12-13T18:31:18.693Z,-3.70
2022-12-13T18:33:47.798Z,-3.63
2022-12-13T18:36:14.991Z,-3.62
2022-12-13T18:38:42.147Z,-3.68
2022-12-13T18:41:24.036Z,-3.76
2022-12-13T18:44:02.076Z,-3.83
2022-12-13T18:46:30.280Z,-3.80
2022-12-13T18:48:57.193Z,-3.83
2022-12-13T18:51:24.194Z,-3.83
2022-12-13T18:53:51.421Z,-3.88
2022-12-13T18:56:19.200Z,-3.97
2022-12-13T18:58:49.305Z,-4.03
2022-12-13T19:01:17.792Z,-3.99
2022-12-13T19:03:46.098Z,-3.99
2022-12-13T19:06:19.369Z,-4.08
2022-12-13T19:08:54.344Z,-4.12
2022-12-13T19:11:21.148Z,-4.10
2022-12-13T19:13:48.425Z,-4.13
2022-12-13T19:16:18.124Z,-4.17
2022-12-13T19:18:44.707Z,-4.18
2022-12-13T19:21:15.584Z,-4.19
2022-12-13T19:23:42.719Z,-4.24
2022-12-13T19:26:14.558Z,-4.27
2022-12-13T19:28:43.110Z,-4.28
2022-12-13T19:31:13.633Z,-4.35
2022-12-13T19:33:41.050Z,-4.37
2022-12-13T19:36:08.026Z,-4.43
2022-12-13T19:38:34.867Z,-4.44
2022-12-13T19:41:10.094Z,-4.52
2022-12-13T19:43:36.718Z,-4.51
2022-12-13T19:46:03.959Z,-4.55
2022-12-13T19:48:30.257Z,-4.54
2022-12-13T19:51:00.819Z,-4.60
2022-12-13T19:53:28.044Z,-4.67
2022-12-13T19:55:55.260Z,-4.68
2022-12-13T19:58:21.680Z,-4.75
2022-12-13T20:00:48.080Z,-4.76
2022-12-13T20:03:14.417Z,-4.78
2022-12-13T20:05:45.489Z,-4.81
2022-12-13T20:08:12.107Z,-4.76
2022-12-13T20:10:38.493Z,-4.83
2022-12-13T20:13:05.128Z,-4.89
2022-12-13T20:15:31.754Z,-4.88
2022-12-13T20:17:58.061Z,-4.91
2022-12-13T20:20:31.553Z,-4.93
2022-12-13T20:23:02.621Z,-4.94
2022-12-13T20:25:28.891Z,-4.92
2022-12-13T20:27:55.176Z,-5.02
2022-12-13T20:30:21.983Z,-5.06
2022-12-13T20:32:48.339Z,-5.07
2022-12-13T20:35:14.651Z,-5.09
2022-12-13T20:37:41.462Z,-5.06
2022-12-13T20:40:08.241Z,-5.09
2022-12-13T20:42:34.586Z,-5.09
2022-12-13T20:45:00.916Z,-5.11
2022-12-13T20:47:27.185Z,-5.19
2022-12-13T20:49:53.475Z,-5.19
2022-12-13T20:52:19.763Z,-5.27
2022-12-13T20:54:46.128Z,-5.31
2022-12-13T20:57:12.438Z,-5.32
2022-12-13T20:59:38.789Z,-5.35
2022-12-13T21:02:05.254Z,-5.31
2022-12-13T21:04:31.612Z,-5.32
2022-12-13T21:06:58.162Z,-5.32
2022-12-13T21:09:24.448Z,-5.30
2022-12-13T21:11:52.308Z,-5.33
2022-12-13T21:14:22.835Z,-5.33
2022-12-13T21:16:53.697Z,-5.38
2022-12-13T21:19:25.255Z,-5.44
2022-12-13T21:21:52.896Z,-5.46
2022-12-13T21:24:22.016Z,-5.43
2022-12-13T21:26:48.539Z,-5.50
2022-12-13T21:29:16.139Z,-5.48
2022-12-13T21:31:49.162Z,-5.46
2022-12-13T21:34:16.739Z,-5.47
2022-12-13T21:36:45.687Z,-5.51
2022-12-13T21:39:22.483Z,-5.55
2022-12-13T21:41:49.449Z,-5.56
2022-12-13T21:44:17.347Z,-5.61
2022-12-13T21:49:30.113Z,-5.64
2022-12-13T21:51:56.420Z,-5.62
2022-12-13T21:54:22.915Z,-5.59
2022-12-13T21:57:08.358Z,-5.56
2022-12-13T21:59:34.652Z,-5.61
2022-12-13T22:02:18.883Z,-5.65
2022-12-13T22:04:51.197Z,-5.61
2022-12-13T22:07:20.289Z,-5.65
2022-12-13T22:09:47.894Z,-5.66
2022-12-13T22:12:35.278Z,-5.70
2022-12-13T22:15:02.313Z,-5.71
2022-12-13T22:17:35.018Z,-5.76
2022-12-13T22:20:04.294Z,-5.74
2022-12-13T22:22:30.662Z,-5.79
2022-12-13T22:24:57.013Z,-5.89
2022-12-13T22:27:23.485Z,-5.89
2022-12-13T22:29:50.748Z,-5.89
2022-12-13T22:32:17.116Z,-5.84
2022-12-13T22:34:43.437Z,-5.85
2022-12-13T22:37:09.777Z,-5.86
2022-12-13T22:39:36.180Z,-5.94
2022-12-13T22:42:02.503Z,-5.98
2022-12-13T22:44:28.883Z,-5.99
2022-12-13T22:46:55.175Z,-6.04
2022-12-13T22:49:22.382Z,-6.03
2022-12-13T22:51:48.957Z,-6.03
2022-12-13T22:54:15.424Z,-6.06
2022-12-13T22:56:41.692Z,-6.04
2022-12-13T22:59:08.158Z,-6.07
2022-12-13T23:01:37.370Z,-6.07
2022-12-13T23:04:04.558Z,-6.15
2022-12-13T23:06:36.354Z,-6.10
2022-12-13T23:09:06.306Z,-6.13
2022-12-13T23:11:51.600Z,-6.13
2022-12-13T23:14:24.397Z,-6.15
2022-12-13T23:16:50.805Z,-6.19
2022-12-13T23:19:40.977Z,-6.18
2022-12-13T23:22:06.131Z,-6.22
2022-12-13T23:24:32.435Z,-6.22
2022-12-13T23:26:58.838Z,-6.23
2022-12-13T23:29:25.142Z,-6.24
2022-12-13T23:31:51.463Z,-6.24
2022-12-13T23:34:17.758Z,-6.27
2022-12-13T23:36:44.093Z,-6.30
2022-12-13T23:39:11.234Z,-6.35
2022-12-13T23:41:37.595Z,-6.32
2022-12-13T23:44:04.339Z,-6.30
2022-12-13T23:46:33.159Z,-6.30
2022-12-13T23:49:00.755Z,-6.32
2022-12-13T23:51:28.281Z,-6.28
2022-12-13T23:53:54.967Z,-6.37
2022-12-13T23:56:21.911Z,-6.40
2022-12-13T23:58:48.364Z,-6.42
